Time;durP1;ratioP1;P1;durP2;ratioP2;P2;SDS_P1;SDS_P2;PMS_P1;PMS_P2;Temp;Humidity;BMP_temperature;BMP_pressure;BME280_temperature;BME280_humidity;BME280_pressure;Samples;Min_cycle;Max_cycle;Signal;HPM_P1;HPM_P2
2021/10/08 00:02:40;;;;;;;8.63;4.13;;;14.00;91.10;;;;;;4897382;29;20048;-80
2021/10/08 00:05:10;;;;;;;10.13;4.13;;;14.00;91.20;;;;;;4880540;29;20052;-81
2021/10/08 00:07:38;;;;;;;12.45;4.53;;;14.00;91.30;;;;;;4880473;29;20076;-78
2021/10/08 00:10:07;;;;;;;8.07;4.50;;;14.00;91.40;;;;;;4895744;29;20052;-79
2021/10/08 00:12:34;;;;;;;7.25;4.60;;;14.00;91.50;;;;;;4879957;29;20410;-79
2021/10/08 00:15:02;;;;;;;7.30;4.75;;;14.00;91.50;;;;;;4897026;29;20052;-79
2021/10/08 00:17:30;;;;;;;12.52;4.63;;;14.00;91.50;;;;;;4897075;29;20060;-79
2021/10/08 00:19:58;;;;;;;11.15;4.72;;;14.00;91.60;;;;;;4880637;29;20064;-79
2021/10/08 00:22:25;;;;;;;16.48;5.13;;;14.00;91.60;;;;;;4896628;29;20044;-79
2021/10/08 00:24:53;;;;;;;12.73;5.40;;;14.00;91.70;;;;;;4896545;29;20073;-79
2021/10/08 00:27:20;;;;;;;11.27;4.97;;;14.00;91.70;;;;;;4864802;29;20259;-79
2021/10/08 00:29:48;;;;;;;9.90;4.80;;;14.10;91.70;;;;;;4896634;29;20045;-79
2021/10/08 00:32:16;;;;;;;11.70;4.85;;;14.10;91.60;;;;;;4895594;29;20049;-79
2021/10/08 00:34:43;;;;;;;9.63;4.78;;;14.10;91.60;;;;;;4895879;29;20056;-79
2021/10/08 00:37:11;;;;;;;10.07;5.05;;;14.20;91.60;;;;;;4871862;29;20068;-79
2021/10/08 00:39:39;;;;;;;11.38;5.60;;;14.20;91.60;;;;;;4887088;29;20052;-79
2021/10/08 00:42:07;;;;;;;10.45;5.68;;;14.10;91.60;;;;;;4880876;29;20067;-79
2021/10/08 00:44:35;;;;;;;12.75;5.18;;;14.10;91.70;;;;;;4897084;29;20052;-80
2021/10/08 00:47:13;;;;;;;14.13;7.43;;;14.00;91.70;;;;;;4895398;29;20059;-80
2021/10/08 00:49:41;;;;;;;9.95;6.45;;;14.00;91.70;;;;;;4864490;29;20487;-80
2021/10/08 00:52:09;;;;;;;12.15;6.45;;;14.00;91.70;;;;;;4875936;29;20423;-80
2021/10/08 00:54:36;;;;;;;12.18;7.05;;;13.90;91.80;;;;;;4861366;29;20064;-80
2021/10/08 00:57:04;;;;;;;15.82;7.57;;;13.90;91.90;;;;;;4861558;29;20053;-80
2021/10/08 00:59:33;;;;;;;15.02;7.50;;;13.80;92.00;;;;;;4876661;29;20511;-79
2021/10/08 01:02:01;;;;;;;15.77;7.90;;;13.80;92.00;;;;;;4879775;29;20060;-80
2021/10/08 01:04:30;;;;;;;14.35;8.15;;;13.80;92.20;;;;;;4896253;29;20045;-80
2021/10/08 01:06:58;;;;;;;14.68;7.45;;;13.80;92.20;;;;;;4895467;29;20049;-80
2021/10/08 01:09:26;;;;;;;12.75;7.40;;;13.80;92.30;;;;;;4895378;29;20055;-80
2021/10/08 01:11:54;;;;;;;16.63;7.53;;;13.80;92.30;;;;;;4895011;29;20060;-79
2021/10/08 01:14:23;;;;;;;14.60;7.65;;;13.80;92.30;;;;;;4879486;29;20063;-79
2021/10/08 01:16:54;;;;;;;10.85;7.10;;;13.80;92.30;;;;;;4879577;29;20502;-80
2021/10/08 01:19:23;;;;;;;10.57;7.03;;;13.80;92.40;;;;;;4879691;29;20056;-79
2021/10/08 01:21:55;;;;;;;15.32;7.80;;;13.80;92.50;;;;;;4879703;29;20495;-80
2021/10/08 01:24:24;;;;;;;16.65;9.43;;;13.70;92.50;;;;;;4863706;29;20503;-79
2021/10/08 01:26:54;;;;;;;15.30;8.38;;;13.70;92.60;;;;;;4863770;29;20414;-80
2021/10/08 01:29:24;;;;;;;18.83;8.95;;;13.60;92.60;;;;;;4879729;29;20072;-80
2021/10/08 01:31:52;;;;;;;22.17;10.43;;;13.60;92.60;;;;;;4879502;29;20064;-80
2021/10/08 01:34:22;;;;;;;22.50;10.82;;;13.50;92.70;;;;;;4882062;29;20052;-80
2021/10/08 01:36:55;;;;;;;28.77;12.00;;;13.50;92.80;;;;;;4885772;29;20052;-80
2021/10/08 01:39:23;;;;;;;24.42;12.55;;;13.40;92.80;;;;;;4904535;29;20056;-80
2021/10/08 01:41:52;;;;;;;30.65;13.88;;;13.40;92.90;;;;;;4902284;29;20051;-79
2021/10/08 01:44:24;;;;;;;27.77;12.75;;;13.30;93.00;;;;;;4882708;29;20053;-80
2021/10/08 01:46:52;;;;;;;23.02;11.88;;;13.30;93.10;;;;;;4898280;29;20049;-80
2021/10/08 01:49:27;;;;;;;26.48;13.18;;;13.30;93.20;;;;;;4883812;29;20060;-80
2021/10/08 01:51:57;;;;;;;26.45;12.10;;;13.30;93.20;;;;;;4885713;29;20067;-80
2021/10/08 01:54:31;;;;;;;26.10;12.25;;;13.30;93.30;;;;;;4886399;29;20063;-79
2021/10/08 01:56:59;;;;;;;24.48;11.32;;;13.30;93.40;;;;;;4906394;29;20048;-80
2021/10/08 01:59:28;;;;;;;26.25;11.57;;;13.20;93.40;;;;;;4902184;29;20414;-80
2021/10/08 02:01:57;;;;;;;24.77;11.25;;;13.20;93.40;;;;;;4902315;29;20055;-80
2021/10/08 02:04:25;;;;;;;24.05;11.90;;;13.10;93.40;;;;;;4902526;29;20418;-80
2021/10/08 02:06:54;;;;;;;28.38;12.20;;;13.10;93.50;;;;;;4901993;29;20509;-79
2021/10/08 02:09:23;;;;;;;31.80;13.95;;;13.00;93.50;;;;;;4901575;29;20048;-79
2021/10/08 02:11:50;;;;;;;32.08;13.15;;;12.90;93.50;;;;;;4883362;29;20060;-80
2021/10/08 02:14:18;;;;;;;36.00;15.55;;;12.80;93.60;;;;;;4893127;29;20045;-79
2021/10/08 02:16:50;;;;;;;36.47;13.68;;;12.80;93.70;;;;;;4894701;29;20095;-80
2021/10/08 02:19:18;;;;;;;26.92;13.38;;;12.80;93.90;;;;;;4884501;29;20048;-80
2021/10/08 02:21:51;;;;;;;27.38;12.65;;;12.80;94.00;;;;;;4868026;29;20072;-80
2021/10/08 02:24:20;;;;;;;36.00;13.57;;;12.70;94.10;;;;;;4882878;29;20057;-79
2021/10/08 02:26:50;;;;;;;27.02;12.35;;;12.80;94.30;;;;;;4883071;29;20491;-80
2021/10/08 02:29:26;;;;;;;21.60;11.65;;;12.80;94.30;;;;;;4882951;29;20399;-79
2021/10/08 02:31:56;;;;;;;25.92;11.95;;;12.80;94.30;;;;;;4882642;29;20356;-80
2021/10/08 02:34:24;;;;;;;31.48;13.23;;;12.80;94.20;;;;;;4867539;29;20495;-80
2021/10/08 02:36:52;;;;;;;27.08;13.25;;;12.80;94.20;;;;;;4883003;29;20407;-80
2021/10/08 02:39:20;;;;;;;26.08;12.32;;;12.90;94.20;;;;;;4886866;29;20053;-80
2021/10/08 02:41:47;;;;;;;29.27;13.20;;;12.90;94.20;;;;;;4889946;29;20071;-80
2021/10/08 02:44:15;;;;;;;25.20;13.25;;;13.00;94.20;;;;;;4883399;29;20514;-80
2021/10/08 02:46:42;;;;;;;23.75;12.95;;;13.00;94.10;;;;;;4882071;29;20049;-79
2021/10/08 02:49:10;;;;;;;36.05;14.65;;;13.00;94.10;;;;;;4882621;29;20075;-80
2021/10/08 02:51:41;;;;;;;33.72;14.50;;;13.00;94.10;;;;;;4899269;29;20056;-80
2021/10/08 02:54:08;;;;;;;36.65;16.00;;;13.10;94.10;;;;;;4882814;29;20045;-79
2021/10/08 02:56:36;;;;;;;33.60;15.25;;;13.10;94.10;;;;;;4899194;29;20483;-79
2021/10/08 02:59:03;;;;;;;36.13;16.40;;;13.10;94.10;;;;;;4881670;29;20052;-79
2021/10/08 03:01:31;;;;;;;39.42;16.92;;;13.10;94.10;;;;;;4881220;29;20053;-79
2021/10/08 03:04:00;;;;;;;36.47;17.08;;;13.10;94.20;;;;;;4897240;29;20056;-79
2021/10/08 03:06:28;;;;;;;42.28;17.80;;;13.10;94.20;;;;;;4880500;29;20052;-79
2021/10/08 03:08:56;;;;;;;39.28;16.20;;;13.10;94.30;;;;;;4880341;29;20513;-79
2021/10/08 03:11:25;;;;;;;36.67;16.83;;;13.10;94.30;;;;;;4880185;29;20056;-80
2021/10/08 03:13:53;;;;;;;34.88;15.80;;;13.00;94.30;;;;;;4880092;29;20060;-79
2021/10/08 03:16:23;;;;;;;35.75;16.33;;;13.10;94.30;;;;;;4864428;29;20057;-79
2021/10/08 03:18:51;;;;;;;43.88;17.10;;;13.00;94.30;;;;;;4879560;29;20209;-79
2021/10/08 03:21:19;;;;;;;42.25;16.95;;;13.10;94.30;;;;;;4880238;29;20056;-79
2021/10/08 03:23:46;;;;;;;36.40;15.43;;;13.10;94.30;;;;;;4880121;29;20072;-80
2021/10/08 03:26:14;;;;;;;36.78;16.70;;;13.10;94.30;;;;;;4880044;29;20071;-79
2021/10/08 03:28:42;;;;;;;41.25;16.67;;;13.00;94.30;;;;;;4864578;29;20080;-79
2021/10/08 03:31:13;;;;;;;43.30;18.10;;;13.00;94.40;;;;;;4880024;29;20384;-79
2021/10/08 03:33:42;;;;;;;39.38;17.20;;;13.00;94.50;;;;;;4866096;29;20057;-79
2021/10/08 03:36:19;;;;;;;45.65;18.15;;;13.00;94.50;;;;;;4865915;29;20049;-79
2021/10/08 03:38:47;;;;;;;39.97;17.25;;;13.00;94.60;;;;;;4881837;29;20061;-80
2021/10/08 03:41:18;;;;;;;34.00;15.80;;;13.00;94.60;;;;;;4865876;29;20064;-79
2021/10/08 03:43:46;;;;;;;32.47;15.32;;;13.00;94.60;;;;;;4881776;29;20398;-79
2021/10/08 03:46:15;;;;;;;40.58;16.98;;;13.00;94.60;;;;;;4865781;29;20055;-79
2021/10/08 03:51:30;;;;;;;42.10;18.10;;;12.90;94.60;;;;;;4882125;29;20064;-79
2021/10/08 03:53:59;;;;;;;39.85;17.52;;;12.80;94.60;;;;;;4905437;29;20052;-79
2021/10/08 03:56:27;;;;;;;38.20;16.50;;;12.90;94.60;;;;;;4889846;29;20055;-79
2021/10/08 03:58:56;;;;;;;43.25;17.58;;;12.90;94.60;;;;;;4866600;29;20075;-79
2021/10/08 04:01:25;;;;;;;59.50;20.02;;;12.80;94.50;;;;;;4880948;29;20052;-79
2021/10/08 04:03:53;;;;;;;40.97;17.83;;;12.80;94.50;;;;;;4881603;29;20060;-79
2021/10/08 04:06:21;;;;;;;61.75;21.25;;;12.80;94.50;;;;;;4880869;29;20052;-79
2021/10/08 04:08:50;;;;;;;53.70;19.40;;;12.80;94.50;;;;;;4896374;29;20059;-78
2021/10/08 04:11:18;;;;;;;51.67;20.58;;;12.70;94.60;;;;;;4896404;29;20049;-79
2021/10/08 04:13:46;;;;;;;55.30;20.75;;;12.70;94.70;;;;;;4847932;29;20064;-79
2021/10/08 04:16:15;;;;;;;48.40;19.65;;;12.60;94.70;;;;;;4862177;29;20053;-79
2021/10/08 04:18:44;;;;;;;49.85;19.52;;;12.60;94.80;;;;;;4877709;29;20053;-79
2021/10/08 04:21:15;;;;;;;48.50;19.30;;;12.50;94.80;;;;;;4877859;29;20060;-79
2021/10/08 04:23:43;;;;;;;42.42;16.83;;;12.50;94.80;;;;;;4862211;29;20063;-79
2021/10/08 04:26:11;;;;;;;52.67;19.60;;;12.60;94.90;;;;;;4878632;29;20057;-78
2021/10/08 04:28:38;;;;;;;52.08;19.13;;;12.50;94.80;;;;;;4846581;29;20080;-78
2021/10/08 04:31:06;;;;;;;45.85;18.02;;;12.50;94.70;;;;;;4877696;29;20045;-78
2021/10/08 04:33:34;;;;;;;42.85;15.95;;;12.40;94.70;;;;;;4877038;29;20053;-78
2021/10/08 04:36:02;;;;;;;40.03;15.85;;;12.40;94.60;;;;;;4862222;29;20063;-78
2021/10/08 04:38:35;;;;;;;31.10;14.02;;;12.30;94.50;;;;;;4885948;29;20218;-78
2021/10/08 04:41:07;;;;;;;48.55;18.95;;;12.20;94.60;;;;;;4871394;29;20049;-79
2021/10/08 04:43:37;;;;;;;60.97;22.00;;;12.20;94.50;;;;;;4879009;29;20048;-78
2021/10/08 04:46:05;;;;;;;44.90;18.27;;;12.10;94.60;;;;;;4877460;29;20053;-78
2021/10/08 04:48:34;;;;;;;46.83;15.90;;;12.00;94.60;;;;;;4846213;29;20072;-78
2021/10/08 04:51:02;;;;;;;28.25;14.15;;;11.90;94.50;;;;;;4876981;29;20057;-79
2021/10/08 04:53:31;;;;;;;29.65;14.57;;;11.90;94.50;;;;;;4861961;29;20052;-79
2021/10/08 04:55:59;;;;;;;37.55;16.80;;;11.80;94.40;;;;;;4877073;29;20063;-79
2021/10/08 04:58:29;;;;;;;32.10;14.45;;;11.70;94.40;;;;;;4861829;29;20507;-78
2021/10/08 05:00:59;;;;;;;46.63;18.23;;;11.70;94.60;;;;;;4861403;29;20056;-78
2021/10/08 05:03:27;;;;;;;42.65;17.92;;;11.70;94.60;;;;;;4877055;29;20459;-79
2021/10/08 05:05:54;;;;;;;51.40;22.50;;;11.60;94.90;;;;;;4861533;29;20511;-79
2021/10/08 05:08:29;;;;;;;73.25;25.42;;;11.60;95.00;;;;;;4878589;29;20049;-79
2021/10/08 05:10:56;;;;;;;58.90;23.40;;;11.70;95.10;;;;;;4882172;29;20053;-78
2021/10/08 05:13:27;;;;;;;62.38;23.33;;;11.70;95.20;;;;;;4880926;29;20509;-78
2021/10/08 05:15:55;;;;;;;64.65;24.15;;;11.70;95.20;;;;;;4850078;29;20060;-78
2021/10/08 05:18:24;;;;;;;70.63;24.02;;;11.70;95.30;;;;;;4864043;29;20502;-78
2021/10/08 05:20:52;;;;;;;73.03;27.33;;;11.80;95.30;;;;;;4872405;29;20059;-79
2021/10/08 05:23:21;;;;;;;77.82;27.90;;;11.70;95.30;;;;;;4883723;29;20044;-79
2021/10/08 05:25:48;;;;;;;66.95;27.13;;;11.80;95.50;;;;;;4900392;29;20049;-78
2021/10/08 05:28:17;;;;;;;74.13;28.67;;;11.80;95.60;;;;;;4884675;29;20044;-78
2021/10/08 05:30:45;;;;;;;94.03;32.83;;;11.90;95.70;;;;;;4875179;29;20162;-78
2021/10/08 05:33:15;;;;;;;92.25;33.33;;;12.00;95.80;;;;;;4892197;29;20055;-78
2021/10/08 05:35:44;;;;;;;104.97;34.38;;;12.10;95.90;;;;;;4885474;29;20122;-78
2021/10/08 05:38:12;;;;;;;73.03;28.35;;;12.20;95.90;;;;;;4879091;29;20048;-79
2021/10/08 05:40:40;;;;;;;95.05;31.50;;;12.20;95.90;;;;;;4865360;29;20045;-78
2021/10/08 05:43:09;;;;;;;101.03;32.63;;;12.30;95.80;;;;;;4879682;29;20056;-78
2021/10/08 05:45:42;;;;;;;104.65;33.50;;;12.30;95.70;;;;;;4886534;29;20055;-79
2021/10/08 05:48:09;;;;;;;99.63;34.38;;;12.30;95.70;;;;;;4883985;29;20557;-78
2021/10/08 05:50:37;;;;;;;91.35;32.67;;;12.40;95.70;;;;;;4901310;29;20048;-78
2021/10/08 05:53:07;;;;;;;78.80;29.80;;;12.50;95.70;;;;;;4917528;29;20422;-79
2021/10/08 05:55:35;;;;;;;78.80;29.48;;;12.60;95.60;;;;;;4901968;29;20059;-78
2021/10/08 05:58:06;;;;;;;72.68;29.33;;;12.60;95.50;;;;;;4902063;29;20059;-78
2021/10/08 06:00:40;;;;;;;76.53;29.52;;;12.70;95.50;;;;;;4870649;29;20060;-79
2021/10/08 06:03:08;;;;;;;76.47;28.73;;;12.70;95.50;;;;;;4851454;29;20502;-78
2021/10/08 06:05:38;;;;;;;67.28;26.52;;;12.70;95.40;;;;;;4869345;29;20894;-78
2021/10/08 06:08:08;;;;;;;65.07;26.58;;;12.80;95.40;;;;;;4871286;29;20379;-79
2021/10/08 06:10:42;;;;;;;49.17;23.67;;;12.80;95.40;;;;;;4879760;29;20048;-79
2021/10/08 06:13:10;;;;;;;51.13;23.50;;;12.80;95.30;;;;;;4864789;29;20057;-80
2021/10/08 06:15:39;;;;;;;53.47;24.85;;;12.80;95.30;;;;;;4867004;29;20400;-79
2021/10/08 06:18:06;;;;;;;56.35;23.85;;;12.80;95.30;;;;;;4896795;29;20493;-79
2021/10/08 06:20:35;;;;;;;59.25;24.45;;;12.80;95.30;;;;;;4900247;29;20048;-79
2021/10/08 06:23:05;;;;;;;53.15;23.08;;;12.80;95.20;;;;;;4885766;29;20067;-79
2021/10/08 06:25:33;;;;;;;58.55;23.35;;;12.80;95.20;;;;;;4895724;29;20045;-80
2021/10/08 06:28:04;;;;;;;54.55;22.60;;;12.90;95.20;;;;;;4898484;29;20165;-79
2021/10/08 06:30:35;;;;;;;54.28;23.67;;;12.90;95.20;;;;;;4898860;29;20052;-79
2021/10/08 06:33:03;;;;;;;52.13;22.77;;;12.90;95.20;;;;;;4875570;29;20048;-79
2021/10/08 06:35:33;;;;;;;54.55;23.90;;;12.90;95.10;;;;;;4900709;29;20055;-79
2021/10/08 06:38:02;;;;;;;49.28;23.05;;;12.90;95.10;;;;;;4900808;29;20044;-80
2021/10/08 06:40:31;;;;;;;61.10;23.55;;;12.90;95.10;;;;;;4920161;29;20055;-80
2021/10/08 06:43:02;;;;;;;52.72;23.17;;;12.90;95.00;;;;;;4902565;29;20048;-80
2021/10/08 06:45:50;;;;;;;54.63;24.55;;;12.90;95.00;;;;;;4884793;29;20414;-80
2021/10/08 06:48:19;;;;;;;48.92;22.50;;;12.90;95.00;;;;;;4883570;29;20067;-80
2021/10/08 06:50:48;;;;;;;55.53;23.48;;;12.90;95.00;;;;;;4902774;29;20521;-80
2021/10/08 06:53:18;;;;;;;53.47;23.50;;;13.00;94.90;;;;;;4870844;29;20064;-79
2021/10/08 06:55:48;;;;;;;57.42;23.20;;;13.00;95.00;;;;;;4876434;29;20071;-80
2021/10/08 06:58:23;;;;;;;49.60;23.27;;;13.00;95.00;;;;;;4890233;29;20055;-80
2021/10/08 07:00:54;;;;;;;47.47;23.00;;;13.00;94.90;;;;;;4890290;29;20048;-80
2021/10/08 07:03:23;;;;;;;46.63;22.35;;;13.10;94.90;;;;;;4881786;29;20067;-80
2021/10/08 07:05:50;;;;;;;38.85;20.95;;;13.10;94.90;;;;;;4884250;29;20405;-79
2021/10/08 07:08:20;;;;;;;37.53;19.90;;;13.20;94.80;;;;;;4881625;29;20052;-79
2021/10/08 07:10:47;;;;;;;32.03;18.65;;;13.20;94.70;;;;;;4901389;29;20043;-80
2021/10/08 07:13:15;;;;;;;43.10;21.40;;;13.20;94.60;;;;;;4906147;29;20564;-79
2021/10/08 07:15:43;;;;;;;44.28;21.15;;;13.20;94.60;;;;;;4905923;29;20367;-79
2021/10/08 07:18:14;;;;;;;36.55;19.30;;;13.30;94.50;;;;;;4900817;29;20525;-80
2021/10/08 07:20:44;;;;;;;37.50;19.73;;;13.30;94.50;;;;;;4918049;29;20036;-80
2021/10/08 07:23:12;;;;;;;39.22;18.95;;;13.30;94.40;;;;;;4916692;29;20055;-80
2021/10/08 07:25:40;;;;;;;38.65;19.40;;;13.30;94.40;;;;;;4877242;29;20057;-80
2021/10/08 07:28:08;;;;;;;32.85;17.98;;;13.30;94.30;;;;;;4863232;29;20057;-80
2021/10/08 07:30:35;;;;;;;33.15;18.20;;;13.40;94.30;;;;;;4879400;29;20484;-80
2021/10/08 07:33:03;;;;;;;27.25;16.77;;;13.40;94.20;;;;;;4889861;29;20063;-80
2021/10/08 07:35:31;;;;;;;33.25;18.13;;;13.30;94.20;;;;;;4917201;29;20072;-80
2021/10/08 07:37:58;;;;;;;31.83;18.17;;;13.50;94.10;;;;;;4900215;29;20438;-80
2021/10/08 07:40:27;;;;;;;31.00;17.15;;;13.50;94.00;;;;;;4903626;29;20056;-80
2021/10/08 07:42:55;;;;;;;29.95;17.52;;;13.50;94.00;;;;;;4877110;29;20049;-80
2021/10/08 07:45:22;;;;;;;27.33;16.95;;;13.60;93.90;;;;;;4878460;29;20053;-80
2021/10/08 07:47:50;;;;;;;29.33;17.08;;;13.70;93.90;;;;;;4878668;29;20049;-80
2021/10/08 07:50:17;;;;;;;26.73;16.67;;;13.70;93.70;;;;;;4878262;29;20072;-80
2021/10/08 07:52:45;;;;;;;26.85;16.98;;;13.80;93.70;;;;;;4878357;29;20223;-81
2021/10/08 07:55:12;;;;;;;28.27;17.10;;;13.80;93.50;;;;;;4878846;29;20411;-80
2021/10/08 07:57:40;;;;;;;32.78;16.73;;;13.90;93.40;;;;;;4862359;29;20086;-80
2021/10/08 08:00:11;;;;;;;30.80;16.52;;;13.90;93.30;;;;;;4879341;29;20064;-80
2021/10/08 08:02:39;;;;;;;29.08;16.92;;;14.00;93.20;;;;;;4879576;29;20048;-79
2021/10/08 08:05:08;;;;;;;26.23;15.52;;;14.10;93.00;;;;;;4862288;29;20068;-79
2021/10/08 08:07:36;;;;;;;24.15;15.50;;;14.20;92.80;;;;;;4879280;29;20496;-80
2021/10/08 08:10:06;;;;;;;26.58;15.85;;;14.20;92.70;;;;;;4862391;29;20049;-80
2021/10/08 08:12:33;;;;;;;19.98;14.18;;;14.30;92.70;;;;;;4878450;29;20068;-80
2021/10/08 08:15:02;;;;;;;23.23;14.18;;;14.30;92.60;;;;;;4861524;29;20083;-79
2021/10/08 08:17:30;;;;;;;21.55;14.13;;;14.30;92.40;;;;;;4879193;29;20052;-79
2021/10/08 08:19:57;;;;;;;19.42;13.68;;;14.40;92.20;;;;;;4862632;29;20057;-79
2021/10/08 08:22:25;;;;;;;19.45;13.40;;;14.50;92.20;;;;;;4879256;29;20049;-79
2021/10/08 08:24:53;;;;;;;24.42;14.20;;;14.50;91.90;;;;;;4907697;29;20056;-79
2021/10/08 08:27:21;;;;;;;25.20;14.35;;;14.60;91.70;;;;;;4915073;29;20051;-81
2021/10/08 08:29:48;;;;;;;23.45;15.25;;;14.60;91.70;;;;;;4914760;29;20062;-79
2021/10/08 08:32:16;;;;;;;24.10;14.27;;;14.70;91.60;;;;;;4884104;29;20052;-79
2021/10/08 08:34:43;;;;;;;24.30;15.75;;;14.80;91.50;;;;;;4898843;29;20067;-80
2021/10/08 08:37:11;;;;;;;19.05;14.80;;;14.80;91.40;;;;;;4901455;29;20048;-79
2021/10/08 08:39:40;;;;;;;16.50;11.88;;;14.90;91.20;;;;;;4905605;29;20044;-80
2021/10/08 08:42:09;;;;;;;16.30;11.77;;;15.10;90.90;;;;;;4867167;29;20055;-79
2021/10/08 08:44:37;;;;;;;17.90;11.50;;;15.10;90.60;;;;;;4880466;29;20068;-80
2021/10/08 08:47:05;;;;;;;15.73;10.75;;;15.20;90.50;;;;;;4896789;29;20404;-80
2021/10/08 08:49:32;;;;;;;13.52;9.88;;;15.20;90.20;;;;;;4880389;29;20061;-81
2021/10/08 08:52:01;;;;;;;15.35;9.75;;;15.30;90.00;;;;;;4885798;29;20059;-80
2021/10/08 08:54:29;;;;;;;14.25;9.60;;;15.30;89.90;;;;;;4889326;29;20060;-80
2021/10/08 08:56:56;;;;;;;17.95;9.73;;;15.30;89.60;;;;;;4888161;29;20191;-80
2021/10/08 08:59:24;;;;;;;12.68;9.13;;;15.30;89.60;;;;;;4881622;29;20060;-80
2021/10/08 09:02:03;;;;;;;14.63;9.48;;;15.30;89.40;;;;;;4880844;29;20045;-80
2021/10/08 09:04:32;;;;;;;15.90;9.57;;;15.30;89.40;;;;;;4879959;29;20053;-80
2021/10/08 09:07:01;;;;;;;12.88;8.57;;;15.30;89.50;;;;;;4865338;29;20045;-80
2021/10/08 09:09:28;;;;;;;11.82;8.45;;;15.30;89.40;;;;;;4897155;29;20052;-80
2021/10/08 09:11:57;;;;;;;11.52;8.07;;;15.40;89.40;;;;;;4880039;29;20407;-80
2021/10/08 09:14:32;;;;;;;14.20;8.85;;;15.40;89.10;;;;;;4879889;29;20059;-80
2021/10/08 09:17:04;;;;;;;12.35;8.80;;;15.40;89.20;;;;;;4880099;29;20404;-80
2021/10/08 09:19:53;;;;;;;12.40;9.85;;;15.50;89.20;;;;;;4897146;29;20079;-80
2021/10/08 09:22:39;;;;;;;13.57;10.52;;;15.50;89.10;;;;;;4897323;29;20063;-80
2021/10/08 09:25:16;;;;;;;14.55;10.00;;;15.50;89.10;;;;;;4897037;29;20056;-80
2021/10/08 09:27:50;;;;;;;9.15;8.18;;;15.60;89.20;;;;;;4880055;29;20079;-81
2021/10/08 09:30:18;;;;;;;12.85;8.38;;;15.70;89.10;;;;;;4865018;29;20052;-80
2021/10/08 09:32:51;;;;;;;13.10;9.88;;;15.80;88.70;;;;;;4879911;29;20052;-80
2021/10/08 09:35:21;;;;;;;14.05;9.60;;;15.80;88.40;;;;;;4896928;29;20060;-80
2021/10/08 09:37:59;;;;;;;15.38;10.90;;;15.80;88.10;;;;;;4896462;29;20060;-81
2021/10/08 09:40:28;;;;;;;14.13;10.57;;;15.80;88.00;;;;;;4896776;29;20057;-80
2021/10/08 09:43:06;;;;;;;12.80;10.25;;;15.80;88.10;;;;;;4896888;29;20503;-80
2021/10/08 09:45:43;;;;;;;12.63;10.10;;;15.80;88.10;;;;;;4896871;29;20056;-80
2021/10/08 09:48:12;;;;;;;14.45;9.93;;;15.90;88.00;;;;;;4879294;29;20057;-80
2021/10/08 09:51:00;;;;;;;12.15;9.40;;;16.00;87.80;;;;;;4896895;29;20057;-80
2021/10/08 09:53:29;;;;;;;11.13;9.27;;;16.10;87.30;;;;;;4880507;29;20048;-80
2021/10/08 09:55:57;;;;;;;11.82;9.23;;;16.10;87.00;;;;;;4882585;29;20049;-81
2021/10/08 09:58:24;;;;;;;11.77;9.73;;;16.20;86.80;;;;;;4883641;29;20053;-80
2021/10/08 10:00:57;;;;;;;12.90;9.95;;;16.20;86.40;;;;;;4899818;29;20060;-80
2021/10/08 10:03:25;;;;;;;13.38;9.90;;;16.20;86.60;;;;;;4900105;29;20045;-80
2021/10/08 10:05:54;;;;;;;11.25;9.60;;;16.20;86.20;;;;;;4867430;29;20049;-80
2021/10/08 10:08:22;;;;;;;13.82;8.90;;;16.20;86.40;;;;;;4883654;29;20059;-80
2021/10/08 10:10:51;;;;;;;13.20;9.02;;;16.20;86.20;;;;;;4867217;29;20068;-80
2021/10/08 10:13:20;;;;;;;10.55;8.77;;;16.20;86.10;;;;;;4899656;29;20048;-80
2021/10/08 10:15:48;;;;;;;12.77;9.23;;;16.20;86.10;;;;;;4882249;29;20052;-81
2021/10/08 10:18:18;;;;;;;12.02;9.25;;;16.30;86.00;;;;;;4883215;29;20047;-80
2021/10/08 10:20:52;;;;;;;15.82;8.38;;;16.30;85.90;;;;;;4882879;29;20072;-81
2021/10/08 10:23:23;;;;;;;11.18;9.30;;;16.40;85.40;;;;;;4867469;29;20086;-80
2021/10/08 10:25:52;;;;;;;12.48;9.82;;;16.50;85.20;;;;;;4899643;29;20063;-81
2021/10/08 10:28:19;;;;;;;13.50;9.18;;;16.50;85.20;;;;;;4867746;29;20093;-81
2021/10/08 10:30:50;;;;;;;12.82;9.50;;;16.50;84.60;;;;;;4882894;29;20522;-80
2021/10/08 10:33:24;;;;;;;9.20;7.80;;;16.50;84.80;;;;;;4899592;29;20071;-81
2021/10/08 10:35:56;;;;;;;9.50;7.70;;;16.60;84.60;;;;;;4904269;29;20060;-80
2021/10/08 10:38:37;;;;;;;9.48;7.90;;;16.60;84.00;;;;;;4880141;29;20067;-80
2021/10/08 10:41:08;;;;;;;9.00;8.10;;;16.50;84.00;;;;;;4916452;29;20387;-80
2021/10/08 10:43:44;;;;;;;9.07;8.15;;;16.60;84.20;;;;;;4886333;29;20048;-80
2021/10/08 10:46:37;;;;;;;10.90;8.43;;;16.70;84.40;;;;;;4917034;29;20048;-80
2021/10/08 10:51:56;;;;;;;11.95;9.50;;;16.70;83.90;;;;;;4901182;29;20048;-80
2021/10/08 10:54:41;;;;;;;14.05;9.73;;;16.60;84.20;;;;;;4885274;29;20059;-80
2021/10/08 10:57:11;;;;;;;13.18;8.95;;;16.60;84.20;;;;;;4885402;29;20056;-80
2021/10/08 10:59:40;;;;;;;10.75;8.40;;;16.50;84.20;;;;;;4918196;29;20044;-80
2021/10/08 11:02:08;;;;;;;8.60;7.70;;;16.40;84.40;;;;;;4917463;29;20063;-81
2021/10/08 11:04:42;;;;;;;10.80;8.57;;;16.30;84.50;;;;;;4917247;29;20055;-80
2021/10/08 11:07:09;;;;;;;8.80;7.90;;;16.30;84.70;;;;;;4916642;29;20052;-80
2021/10/08 11:09:39;;;;;;;13.15;8.27;;;16.40;84.60;;;;;;4916148;29;20059;-80
2021/10/08 11:12:28;;;;;;;9.73;8.43;;;16.40;84.70;;;;;;4917460;29;20060;-80
2021/10/08 11:15:14;;;;;;;14.13;8.57;;;16.50;84.30;;;;;;4900955;29;20385;-80
2021/10/08 11:17:53;;;;;;;9.38;7.40;;;16.60;84.30;;;;;;4884633;29;20068;-80
2021/10/08 11:20:33;;;;;;;7.22;6.45;;;16.70;84.20;;;;;;4917710;29;20067;-80
2021/10/08 11:23:19;;;;;;;6.43;5.68;;;16.80;84.10;;;;;;4917624;29;20064;-80
2021/10/08 11:25:49;;;;;;;10.27;9.13;;;16.80;83.60;;;;;;4915583;29;20502;-80
2021/10/08 11:28:23;;;;;;;11.88;8.63;;;16.90;83.50;;;;;;4884657;29;20048;-80
2021/10/08 11:30:51;;;;;;;10.35;8.18;;;16.90;83.60;;;;;;4917508;29;20047;-80
2021/10/08 11:33:31;;;;;;;8.85;6.78;;;16.80;83.50;;;;;;4917492;29;20059;-80
2021/10/08 11:35:58;;;;;;;9.23;6.90;;;16.80;83.50;;;;;;4915517;29;20062;-80
2021/10/08 11:38:26;;;;;;;7.65;6.57;;;16.80;83.30;;;;;;4917268;29;20048;-80
2021/10/08 11:40:53;;;;;;;10.90;7.00;;;16.70;83.30;;;;;;4907099;29;20118;-80
2021/10/08 11:43:35;;;;;;;10.77;6.22;;;16.60;83.60;;;;;;4881693;29;20052;-80
2021/10/08 11:46:40;;;;;;;7.68;6.68;;;16.70;84.00;;;;;;4881724;29;20515;-80
2021/10/08 11:52:00;;;;;;;12.15;7.47;;;16.60;83.80;;;;;;4897090;29;20061;-80
2021/10/08 11:54:28;;;;;;;8.23;6.95;;;16.50;84.00;;;;;;4882062;29;20057;-79
2021/10/08 11:57:00;;;;;;;7.70;6.03;;;16.50;84.30;;;;;;4897445;29;20045;-80
2021/10/08 11:59:28;;;;;;;11.80;5.28;;;16.60;84.30;;;;;;4881625;29;20163;-80
2021/10/08 12:02:15;;;;;;;7.53;5.10;;;16.60;84.30;;;;;;4902082;29;20053;-80
2021/10/08 12:05:00;;;;;;;8.00;5.40;;;16.70;84.10;;;;;;4900454;29;20061;-80
2021/10/08 12:07:34;;;;;;;7.10;5.63;;;16.70;83.90;;;;;;4898282;29;20515;-80
2021/10/08 12:10:12;;;;;;;9.63;6.63;;;16.70;84.00;;;;;;4880853;29;20531;-80
2021/10/08 12:12:54;;;;;;;10.95;8.95;;;16.70;84.00;;;;;;4881538;29;20503;-80
2021/10/08 12:15:28;;;;;;;10.32;7.78;;;16.70;84.00;;;;;;4902327;29;20435;-80
2021/10/08 12:18:01;;;;;;;12.15;7.78;;;16.60;84.20;;;;;;4887237;29;20048;-80
2021/10/08 12:20:32;;;;;;;8.98;6.97;;;16.50;84.40;;;;;;4900356;29;20502;-80
2021/10/08 12:23:23;;;;;;;8.95;7.40;;;16.40;84.40;;;;;;4897065;29;20060;-79
2021/10/08 12:25:53;;;;;;;10.48;7.68;;;16.30;84.60;;;;;;4884244;29;20494;-80
2021/10/08 12:28:24;;;;;;;13.27;7.88;;;16.40;84.80;;;;;;4897370;29;20048;-80
2021/10/08 12:30:57;;;;;;;10.52;8.70;;;16.40;84.90;;;;;;4881178;29;20055;-80
2021/10/08 12:33:32;;;;;;;11.82;8.82;;;16.50;84.90;;;;;;4881104;29;20044;-80
2021/10/08 12:36:23;;;;;;;11.45;8.07;;;16.40;84.80;;;;;;4881439;29;20079;-80
2021/10/08 12:38:50;;;;;;;13.15;6.97;;;16.30;85.00;;;;;;4905357;29;20048;-80
2021/10/08 12:41:23;;;;;;;10.13;8.02;;;16.30;85.10;;;;;;4913892;29;20218;-80
2021/10/08 12:44:07;;;;;;;13.55;8.73;;;16.30;85.00;;;;;;4898873;29;20410;-80
2021/10/08 12:46:36;;;;;;;16.90;8.60;;;16.40;85.10;;;;;;4916031;29;20048;-81
2021/10/08 12:49:06;;;;;;;9.98;6.47;;;16.50;85.20;;;;;;4915672;29;20044;-80
2021/10/08 12:51:49;;;;;;;6.85;6.15;;;16.60;85.10;;;;;;4899210;29;20063;-81
2021/10/08 12:54:25;;;;;;;7.55;6.75;;;16.60;84.50;;;;;;4916020;29;20509;-80
2021/10/08 12:57:19;;;;;;;12.80;6.50;;;16.60;84.30;;;;;;4884043;29;20064;-80
2021/10/08 12:59:54;;;;;;;7.00;6.30;;;16.70;84.20;;;;;;4916190;29;20056;-80